createdAt,value
2022-08-25T00:00:14.739Z,83.48
2022-08-25T00:02:41.580Z,82.90
2022-08-25T00:05:21.415Z,82.91
2022-08-25T00:07:47.992Z,83.07
2022-08-25T00:10:14.301Z,82.84
2022-08-25T00:12:40.605Z,84.45
2022-08-25T00:15:06.964Z,84.54
2022-08-25T00:17:33.263Z,83.63
2022-08-25T00:19:59.640Z,82.91
2022-08-25T00:22:25.946Z,83.03
2022-08-25T00:24:52.264Z,82.83
2022-08-25T00:27:18.557Z,82.85
2022-08-25T00:29:44.880Z,83.01
2022-08-25T00:32:11.180Z,83.03
2022-08-25T00:34:37.519Z,82.91
2022-08-25T00:37:03.823Z,82.76
2022-08-25T00:39:30.513Z,82.96
2022-08-25T00:41:57.514Z,82.70
2022-08-25T00:44:23.777Z,83.24
2022-08-25T00:46:50.075Z,82.99
2022-08-25T00:49:24.914Z,83.09
2022-08-25T00:51:51.814Z,83.06
2022-08-25T00:54:18.460Z,83.02
2022-08-25T00:56:45.248Z,83.05
2022-08-25T00:59:11.633Z,83.11
2022-08-25T01:01:38.098Z,83.87
2022-08-25T01:04:04.420Z,83.81
2022-08-25T01:06:30.781Z,83.73
2022-08-25T01:08:57.379Z,83.15
2022-08-25T01:11:23.684Z,83.26
2022-08-25T01:13:50.169Z,83.58
2022-08-25T01:16:16.627Z,83.72
2022-08-25T01:18:43.017Z,83.47
2022-08-25T01:21:09.320Z,83.34
2022-08-25T01:23:35.630Z,83.93
2022-08-25T01:26:01.940Z,83.80
2022-08-25T01:28:28.246Z,83.73
2022-08-25T01:30:54.648Z,83.37
2022-08-25T01:33:22.331Z,83.54
2022-08-25T01:35:48.636Z,83.84
2022-08-25T01:38:14.945Z,84.09
2022-08-25T01:40:41.272Z,83.62
2022-08-25T01:43:07.812Z,84.09
2022-08-25T01:45:34.412Z,84.33
2022-08-25T01:48:00.819Z,84.33
2022-08-25T01:50:27.187Z,84.13
2022-08-25T01:52:53.490Z,84.46
2022-08-25T01:55:19.798Z,83.96
2022-08-25T01:57:46.311Z,84.07
2022-08-25T02:00:13.933Z,84.92
2022-08-25T02:02:42.825Z,85.13
2022-08-25T02:05:10.357Z,85.25
2022-08-25T02:07:36.657Z,86.24
2022-08-25T02:10:04.375Z,86.51
2022-08-25T02:12:36.029Z,85.91
2022-08-25T02:15:02.336Z,86.02
2022-08-25T02:17:28.642Z,86.36
2022-08-25T02:19:56.891Z,85.98
2022-08-25T02:22:23.203Z,86.39
2022-08-25T02:24:49.500Z,86.51
2022-08-25T02:27:15.816Z,86.59
2022-08-25T02:29:42.114Z,87.03
2022-08-25T02:32:10.284Z,86.80
2022-08-25T02:34:37.127Z,86.29
2022-08-25T02:37:03.472Z,85.91
2022-08-25T02:39:29.804Z,86.62
2022-08-25T02:41:56.116Z,87.27
2022-08-25T02:44:22.411Z,86.85
2022-08-25T02:46:48.869Z,86.69
2022-08-25T02:49:15.168Z,87.82
2022-08-25T02:51:41.483Z,87.38
2022-08-25T02:54:07.825Z,88.03
2022-08-25T02:56:34.135Z,88.36
2022-08-25T02:59:00.699Z,88.41
2022-08-25T03:01:28.934Z,87.84
2022-08-25T03:03:55.462Z,87.43
2022-08-25T03:06:24.199Z,87.92
2022-08-25T03:08:50.591Z,88.14
2022-08-25T03:11:17.820Z,88.11
2022-08-25T03:13:44.169Z,87.15
2022-08-25T03:16:11.291Z,87.18
2022-08-25T03:18:38.699Z,87.42
2022-08-25T03:21:05.015Z,87.64
2022-08-25T03:23:31.319Z,87.64
2022-08-25T03:26:16.469Z,87.79
2022-08-25T03:28:42.795Z,87.00
2022-08-25T03:31:09.113Z,86.88
2022-08-25T03:33:35.420Z,86.63
2022-08-25T03:36:01.733Z,87.53
2022-08-25T03:38:28.024Z,87.98
2022-08-25T03:40:54.345Z,87.65
2022-08-25T03:43:20.646Z,87.64
2022-08-25T03:45:47.710Z,87.71
2022-08-25T03:48:14.265Z,89.46
2022-08-25T03:50:40.582Z,88.81
2022-08-25T03:53:07.463Z,88.21
2022-08-25T03:55:37.145Z,87.75
2022-08-25T03:58:03.550Z,87.58
2022-08-25T04:00:30.353Z,87.41
2022-08-25T04:02:56.655Z,87.33
2022-08-25T04:05:23.224Z,87.27
2022-08-25T04:07:53.105Z,87.08
2022-08-25T04:10:20.446Z,87.02
2022-08-25T04:12:49.257Z,87.84
2022-08-25T04:15:15.580Z,87.60
2022-08-25T04:17:41.904Z,87.23
2022-08-25T04:20:08.725Z,87.75
2022-08-25T04:22:36.886Z,87.34
2022-08-25T04:25:03.768Z,87.27
2022-08-25T04:27:30.067Z,87.15
2022-08-25T04:29:56.679Z,87.18
2022-08-25T04:32:22.981Z,87.31
2022-08-25T04:34:49.364Z,86.88
2022-08-25T04:37:15.667Z,86.66
2022-08-25T04:39:42.104Z,86.70
2022-08-25T04:42:08.400Z,86.31
2022-08-25T04:44:34.719Z,87.05
2022-08-25T04:47:01.046Z,86.85
2022-08-25T04:49:28.069Z,86.66
2022-08-25T04:51:54.345Z,86.44
2022-08-25T04:54:23.748Z,85.98
2022-08-25T04:56:50.076Z,85.98
2022-08-25T04:59:20.925Z,85.41
2022-08-25T05:01:47.294Z,85.30
2022-08-25T05:04:28.544Z,85.35
2022-08-25T05:06:55.353Z,84.52
2022-08-25T05:09:21.768Z,84.31
2022-08-25T05:11:48.209Z,83.80
2022-08-25T05:14:18.126Z,84.77
2022-08-25T05:16:45.008Z,84.73
2022-08-25T05:19:11.351Z,84.36
2022-08-25T05:21:37.795Z,83.79
2022-08-25T05:24:04.086Z,83.35
2022-08-25T05:26:30.749Z,83.24
2022-08-25T05:28:57.048Z,82.66
2022-08-25T05:31:23.441Z,83.10
2022-08-25T05:33:49.815Z,83.51
2022-08-25T05:36:16.132Z,83.20
2022-08-25T05:38:42.658Z,84.83
2022-08-25T05:41:10.646Z,84.60
2022-08-25T05:43:36.949Z,84.47
2022-08-25T05:46:03.379Z,83.52
2022-08-25T05:48:30.771Z,84.38
2022-08-25T05:50:57.215Z,84.22
2022-08-25T05:53:23.541Z,83.60
2022-08-25T05:55:49.837Z,83.38
2022-08-25T05:58:16.196Z,82.35
2022-08-25T06:00:42.992Z,82.03
2022-08-25T06:03:09.360Z,81.56
2022-08-25T06:05:35.702Z,81.27
2022-08-25T06:08:02.058Z,81.11
2022-08-25T06:10:28.435Z,81.43
2022-08-25T06:12:54.732Z,80.72
2022-08-25T06:15:23.082Z,79.93
2022-08-25T06:17:49.388Z,79.47
2022-08-25T06:20:15.877Z,80.41
2022-08-25T06:22:42.177Z,81.39
2022-08-25T06:25:09.583Z,81.14
2022-08-25T06:27:35.889Z,80.84
2022-08-25T06:30:08.030Z,80.56
2022-08-25T06:32:35.810Z,79.35
2022-08-25T06:35:02.197Z,79.63
2022-08-25T06:37:28.510Z,79.66
2022-08-25T06:39:55.630Z,79.94
2022-08-25T06:42:21.966Z,78.38
2022-08-25T06:44:48.269Z,77.77
2022-08-25T06:47:15.833Z,76.89
2022-08-25T06:49:42.444Z,76.57
2022-08-25T06:52:08.937Z,76.28
2022-08-25T06:54:35.241Z,75.11
2022-08-25T06:57:01.562Z,74.58
2022-08-25T06:59:32.105Z,74.40
2022-08-25T07:01:59.415Z,77.26
2022-08-25T07:04:26.069Z,76.25
2022-08-25T07:06:56.027Z,77.34
2022-08-25T07:09:22.338Z,76.20
2022-08-25T07:11:48.665Z,74.80
2022-08-25T07:14:16.070Z,74.44
2022-08-25T07:16:47.214Z,75.11
2022-08-25T07:19:15.912Z,75.76
2022-08-25T07:21:42.401Z,73.97
2022-08-25T07:24:11.691Z,73.58
2022-08-25T07:26:38.969Z,72.95
2022-08-25T07:29:05.552Z,72.95
2022-08-25T07:31:31.996Z,74.49
2022-08-25T07:34:16.815Z,75.80
2022-08-25T07:36:43.363Z,74.29
2022-08-25T07:39:09.671Z,74.40
2022-08-25T07:41:36.013Z,74.82
2022-08-25T07:44:02.312Z,76.33
2022-08-25T07:46:28.643Z,75.24
2022-08-25T07:48:55.024Z,73.93
2022-08-25T07:51:21.387Z,73.82
2022-08-25T07:53:48.836Z,74.78
2022-08-25T07:56:15.185Z,75.51
2022-08-25T07:58:42.261Z,76.70
2022-08-25T08:01:08.683Z,75.78
2022-08-25T08:03:50.074Z,75.21
2022-08-25T08:09:07.647Z,72.57
2022-08-25T08:11:34.455Z,72.35
2022-08-25T08:14:00.701Z,72.25
2022-08-25T08:16:27.053Z,70.78
2022-08-25T08:18:53.413Z,70.02
2022-08-25T08:21:20.143Z,71.99
2022-08-25T08:23:47.169Z,72.66
2022-08-25T08:26:13.520Z,71.56
2022-08-25T08:28:39.841Z,72.39
2022-08-25T08:31:06.627Z,71.80
2022-08-25T08:33:40.734Z,71.45
2022-08-25T08:36:07.363Z,70.98
2022-08-25T08:38:33.851Z,70.06
2022-08-25T08:41:21.848Z,69.66
2022-08-25T08:43:50.048Z,71.98
2022-08-25T08:46:17.009Z,70.62
2022-08-25T08:48:43.384Z,70.10
2022-08-25T08:51:10.013Z,69.91
2022-08-25T08:53:36.376Z,69.15
2022-08-25T08:56:02.705Z,68.54
2022-08-25T08:58:29.028Z,67.97
2022-08-25T09:00:55.825Z,67.63
2022-08-25T09:03:24.546Z,66.87
2022-08-25T09:05:51.383Z,66.29
2022-08-25T09:08:20.394Z,65.96
2022-08-25T09:10:47.059Z,66.43
2022-08-25T09:13:15.440Z,67.21
2022-08-25T09:16:01.374Z,66.30
2022-08-25T09:18:27.756Z,65.32
2022-08-25T09:20:54.071Z,65.78
2022-08-25T09:23:20.772Z,66.07
2022-08-25T09:25:52.739Z,66.19
2022-08-25T09:28:20.727Z,66.42
2022-08-25T09:30:47.230Z,64.79
2022-08-25T09:33:13.635Z,64.50
2022-08-25T09:35:47.403Z,65.13
2022-08-25T09:38:16.242Z,64.19
2022-08-25T09:40:42.634Z,63.37
2022-08-25T09:43:08.937Z,62.59
2022-08-25T09:45:35.309Z,61.14
2022-08-25T09:48:02.638Z,61.11
2022-08-25T09:50:29.036Z,61.11
2022-08-25T09:52:55.359Z,61.22
2022-08-25T09:55:21.698Z,60.75
2022-08-25T09:57:53.049Z,61.46
2022-08-25T10:00:19.605Z,61.21
2022-08-25T10:02:45.928Z,59.28
2022-08-25T10:05:12.275Z,58.36
2022-08-25T10:07:38.644Z,59.45
2022-08-25T10:10:07.558Z,59.57
2022-08-25T10:12:36.300Z,60.03
2022-08-25T10:15:09.181Z,59.89
2022-08-25T10:17:35.655Z,59.81
2022-08-25T10:20:01.972Z,59.33
2022-08-25T10:22:34.284Z,59.78
2022-08-25T10:25:00.580Z,59.58
2022-08-25T10:27:30.997Z,59.33
2022-08-25T10:29:57.304Z,59.20
2022-08-25T10:32:27.919Z,58.78
2022-08-25T10:34:54.532Z,58.96
2022-08-25T10:37:20.874Z,59.29
2022-08-25T10:39:54.904Z,58.84
2022-08-25T10:42:25.860Z,58.96
2022-08-25T10:45:14.812Z,59.26
2022-08-25T10:47:44.554Z,58.47
2022-08-25T10:50:10.913Z,57.70
2022-08-25T10:52:38.145Z,56.50
2022-08-25T10:55:04.883Z,55.87
2022-08-25T10:57:31.160Z,55.18
2022-08-25T10:59:57.507Z,55.60
2022-08-25T11:02:27.923Z,55.34
2022-08-25T11:04:54.783Z,55.85
2022-08-25T11:07:21.209Z,55.82
2022-08-25T11:09:49.241Z,56.93
2022-08-25T11:12:15.727Z,56.28
2022-08-25T11:14:42.981Z,57.37
2022-08-25T11:17:09.390Z,57.06
2022-08-25T11:19:35.724Z,56.39
2022-08-25T11:22:02.099Z,56.31
2022-08-25T11:24:28.395Z,55.78
2022-08-25T11:26:54.712Z,55.77
2022-08-25T11:29:21.795Z,56.58
2022-08-25T11:31:52.755Z,55.40
2022-08-25T11:34:19.756Z,55.63
2022-08-25T11:36:46.488Z,55.57
2022-08-25T11:39:12.748Z,55.55
2022-08-25T11:41:40.617Z,55.02
2022-08-25T11:44:06.944Z,55.34
2022-08-25T11:46:33.289Z,55.79
2022-08-25T11:48:59.640Z,54.84
2022-08-25T11:51:26.250Z,54.81
2022-08-25T11:53:57.173Z,54.09
2022-08-25T11:56:23.536Z,54.24
2022-08-25T11:58:50.173Z,53.76
2022-08-25T12:01:16.452Z,54.33
2022-08-25T12:03:43.043Z,53.21
2022-08-25T12:06:12.930Z,54.15
2022-08-25T12:08:39.540Z,54.42
2022-08-25T12:11:11.222Z,53.96
2022-08-25T12:13:38.340Z,53.83
2022-08-25T12:16:04.743Z,53.34
2022-08-25T12:18:31.100Z,52.97
2022-08-25T12:20:57.417Z,52.80
2022-08-25T12:23:23.734Z,53.29
2022-08-25T12:25:51.089Z,52.75
2022-08-25T12:28:17.463Z,53.09
2022-08-25T12:30:45.891Z,52.68
2022-08-25T12:33:14.119Z,52.68
2022-08-25T12:35:41.140Z,51.62
2022-08-25T12:38:08.883Z,51.83
2022-08-25T12:40:35.507Z,50.39
2022-08-25T12:43:02.104Z,50.93
2022-08-25T12:45:28.439Z,50.95
2022-08-25T12:47:57.429Z,50.06
2022-08-25T12:50:24.335Z,50.16
2022-08-25T12:52:51.033Z,51.23
2022-08-25T12:55:17.338Z,51.04
2022-08-25T12:57:43.676Z,50.08
2022-08-25T13:00:12.775Z,51.35
2022-08-25T13:02:39.773Z,51.05
2022-08-25T13:05:16.045Z,50.14
2022-08-25T13:07:42.460Z,50.20
2022-08-25T13:10:08.763Z,49.07
2022-08-25T13:12:35.070Z,49.33
2022-08-25T13:15:01.457Z,50.06
2022-08-25T13:17:28.203Z,48.96
2022-08-25T13:19:55.387Z,47.61
2022-08-25T13:22:22.055Z,47.74
2022-08-25T13:24:52.122Z,47.36
2022-08-25T13:27:22.685Z,46.84
2022-08-25T13:29:49.347Z,46.30
2022-08-25T13:32:17.599Z,47.27
2022-08-25T13:34:44.056Z,45.97
2022-08-25T13:37:31.187Z,46.65
2022-08-25T13:39:58.799Z,47.12
2022-08-25T13:42:28.859Z,47.21
2022-08-25T13:44:55.846Z,47.23
2022-08-25T13:47:23.148Z,46.89
2022-08-25T13:49:50.068Z,47.44
2022-08-25T13:52:18.508Z,48.17
2022-08-25T13:54:45.012Z,47.99
2022-08-25T13:57:12.080Z,48.06
2022-08-25T13:59:40.099Z,48.61
2022-08-25T14:02:06.821Z,48.71
2022-08-25T14:04:33.947Z,49.18
2022-08-25T14:07:00.260Z,48.61
2022-08-25T14:09:28.202Z,48.01
2022-08-25T14:11:54.819Z,48.27
2022-08-25T14:14:22.067Z,47.00
2022-08-25T14:16:49.431Z,47.57
2022-08-25T14:19:19.808Z,46.11
2022-08-25T14:21:46.520Z,46.29
2022-08-25T14:24:16.045Z,47.20
2022-08-25T14:26:54.394Z,47.68
2022-08-25T14:29:22.026Z,47.87
2022-08-25T14:31:48.426Z,47.41
2022-08-25T14:34:15.160Z,48.88
2022-08-25T14:36:42.566Z,49.17
2022-08-25T14:39:11.171Z,48.77
2022-08-25T14:41:37.473Z,48.70
2022-08-25T14:44:05.059Z,49.35
2022-08-25T14:46:31.312Z,49.09
2022-08-25T14:48:57.700Z,49.29
2022-08-25T14:51:24.086Z,49.29
2022-08-25T14:53:51.521Z,49.17
2022-08-25T14:56:17.755Z,50.19
2022-08-25T14:58:51.083Z,49.88
2022-08-25T15:01:28.450Z,50.16
2022-08-25T15:03:56.011Z,50.54
2022-08-25T15:06:22.353Z,50.79
2022-08-25T15:09:07.273Z,50.04
2022-08-25T15:11:34.210Z,50.54
2022-08-25T15:14:01.629Z,51.89
2022-08-25T15:16:33.963Z,51.29
2022-08-25T15:19:01.657Z,51.86
2022-08-25T15:21:32.860Z,52.19
2022-08-25T15:24:00.344Z,52.57
2022-08-25T15:26:26.648Z,51.68
2022-08-25T15:28:52.993Z,51.86
2022-08-25T15:31:20.045Z,51.58
2022-08-25T15:33:46.619Z,51.37
2022-08-25T15:36:15.215Z,51.44
2022-08-25T15:38:41.758Z,51.58
2022-08-25T15:41:08.347Z,52.42
2022-08-25T15:43:36.747Z,53.84
2022-08-25T15:46:03.079Z,54.44
2022-08-25T15:48:29.635Z,55.31
2022-08-25T15:50:56.723Z,54.64
2022-08-25T15:53:23.019Z,54.35
2022-08-25T15:55:52.375Z,53.94
2022-08-25T15:58:20.475Z,54.11
2022-08-25T16:00:56.259Z,54.32
2022-08-25T16:03:23.082Z,55.42
2022-08-25T16:05:50.358Z,56.78
2022-08-25T16:08:19.379Z,57.36
2022-08-25T16:10:46.274Z,57.35
2022-08-25T16:13:12.586Z,57.22
2022-08-25T16:15:38.893Z,57.32
2022-08-25T16:18:05.259Z,56.95
2022-08-25T16:20:31.675Z,56.48
2022-08-25T16:23:00.586Z,57.05
2022-08-25T16:25:26.906Z,57.16
2022-08-25T16:27:53.131Z,57.58
2022-08-25T16:30:19.427Z,58.01
2022-08-25T16:32:46.541Z,58.16
2022-08-25T16:35:13.191Z,57.70
2022-08-25T16:37:42.850Z,58.50
2022-08-25T16:40:10.224Z,59.44
2022-08-25T16:42:37.002Z,58.74
2022-08-25T16:45:05.165Z,58.53
2022-08-25T16:47:34.379Z,58.96
2022-08-25T16:50:00.681Z,58.56
2022-08-25T16:52:46.328Z,58.15
2022-08-25T16:55:12.775Z,59.20
2022-08-25T16:57:39.071Z,59.45
2022-08-25T17:00:05.557Z,59.09
2022-08-25T17:02:31.873Z,58.91
2022-08-25T17:04:59.193Z,59.58
2022-08-25T17:07:26.171Z,59.26
2022-08-25T17:09:53.084Z,60.17
2022-08-25T17:12:20.315Z,60.18
2022-08-25T17:14:47.344Z,60.29
2022-08-25T17:17:13.830Z,60.50
2022-08-25T17:19:45.395Z,60.75
2022-08-25T17:22:15.552Z,60.48
2022-08-25T17:24:42.148Z,59.18
2022-08-25T17:27:08.472Z,58.65
2022-08-25T17:29:34.919Z,58.57
2022-08-25T17:32:01.238Z,58.33
2022-08-25T17:34:27.906Z,58.64
2022-08-25T17:36:54.771Z,59.15
2022-08-25T17:39:22.327Z,59.02
2022-08-25T17:41:48.867Z,59.36
2022-08-25T17:44:16.202Z,60.17
2022-08-25T17:46:47.323Z,60.23
2022-08-25T17:49:14.907Z,60.38
2022-08-25T17:51:41.742Z,60.96
2022-08-25T17:54:08.061Z,60.60
2022-08-25T17:56:34.481Z,61.19
2022-08-25T17:59:01.832Z,61.32
2022-08-25T18:01:28.197Z,62.05
2022-08-25T18:03:54.545Z,63.00
2022-08-25T18:06:22.328Z,62.82
2022-08-25T18:08:52.375Z,63.44
2022-08-25T18:11:20.119Z,64.43
2022-08-25T18:13:46.447Z,64.73
2022-08-25T18:16:13.207Z,65.54
2022-08-25T18:18:39.436Z,65.93
2022-08-25T18:21:09.117Z,66.79
2022-08-25T18:23:35.725Z,67.83
2022-08-25T18:26:02.511Z,67.20
2022-08-25T18:28:29.144Z,66.62
2022-08-25T18:30:55.500Z,66.25
2022-08-25T18:33:22.637Z,66.36
2022-08-25T18:35:48.930Z,66.40
2022-08-25T18:38:33.982Z,66.11
2022-08-25T18:41:00.761Z,66.20
2022-08-25T18:43:28.112Z,66.21
2022-08-25T18:45:59.372Z,66.54
2022-08-25T18:48:26.682Z,66.55
2022-08-25T18:50:56.699Z,67.16
2022-08-25T18:53:30.538Z,67.44
2022-08-25T18:56:03.517Z,68.63
2022-08-25T18:58:29.817Z,68.01
2022-08-25T19:00:56.377Z,67.71
2022-08-25T19:03:23.443Z,68.05
2022-08-25T19:05:52.820Z,68.35
2022-08-25T19:08:23.961Z,68.11
2022-08-25T19:10:50.291Z,68.31
2022-08-25T19:13:16.731Z,68.65
2022-08-25T19:15:48.883Z,69.25
2022-08-25T19:18:17.373Z,68.87
2022-08-25T19:20:44.604Z,68.96
2022-08-25T19:23:11.026Z,68.89
2022-08-25T19:25:41.665Z,69.24
2022-08-25T19:28:08.373Z,69.61
2022-08-25T19:30:38.324Z,70.05
2022-08-25T19:33:16.117Z,70.27
2022-08-25T19:36:02.396Z,70.52
2022-08-25T19:38:33.411Z,70.73
2022-08-25T19:41:00.703Z,70.71
2022-08-25T19:43:27.211Z,70.43
2022-08-25T19:45:53.524Z,71.18
2022-08-25T19:48:19.891Z,71.31
2022-08-25T19:50:47.795Z,70.65
2022-08-25T19:53:22.233Z,71.01
2022-08-25T19:55:48.548Z,71.29
2022-08-25T19:58:15.268Z,71.40
2022-08-25T20:00:46.175Z,71.59
2022-08-25T20:03:14.610Z,71.47
2022-08-25T20:05:41.587Z,72.25
2022-08-25T20:08:07.824Z,72.24
2022-08-25T20:10:39.432Z,72.46
2022-08-25T20:13:08.480Z,72.56
2022-08-25T20:15:39.127Z,72.57
2022-08-25T20:18:05.756Z,72.58
2022-08-25T20:20:34.653Z,72.79
2022-08-25T20:23:20.500Z,73.10
2022-08-25T20:25:46.814Z,73.04
2022-08-25T20:28:13.115Z,73.35
2022-08-25T20:30:45.493Z,73.09
2022-08-25T20:33:11.824Z,73.47
2022-08-25T20:35:38.461Z,73.31
2022-08-25T20:38:05.299Z,74.24
2022-08-25T20:40:32.375Z,74.20
2022-08-25T20:42:58.785Z,74.20
2022-08-25T20:45:25.387Z,75.11
2022-08-25T20:47:51.679Z,74.86
2022-08-25T20:50:18.178Z,74.78
2022-08-25T20:52:44.486Z,75.73
2022-08-25T20:55:11.102Z,75.72
2022-08-25T20:57:38.479Z,75.34
2022-08-25T21:00:04.701Z,75.28
2022-08-25T21:02:31.064Z,75.98
2022-08-25T21:04:57.679Z,78.66
2022-08-25T21:07:24.141Z,77.95
2022-08-25T21:09:50.495Z,77.31
2022-08-25T21:12:18.268Z,77.02
2022-08-25T21:14:44.615Z,76.57
2022-08-25T21:17:11.265Z,76.39
2022-08-25T21:19:39.057Z,76.40
2022-08-25T21:22:06.262Z,76.25
2022-08-25T21:24:32.580Z,76.29
2022-08-25T21:26:59.775Z,76.60
2022-08-25T21:29:28.414Z,76.56
2022-08-25T21:31:55.015Z,76.74
2022-08-25T21:34:21.253Z,77.90
2022-08-25T21:36:48.728Z,79.09
2022-08-25T21:39:15.021Z,78.32
2022-08-25T21:41:42.692Z,78.51
2022-08-25T21:44:09.280Z,78.52
2022-08-25T21:46:35.693Z,78.64
2022-08-25T21:49:05.967Z,78.53
2022-08-25T21:51:32.902Z,78.07
2022-08-25T21:54:08.993Z,78.59
2022-08-25T21:56:35.317Z,78.93
2022-08-25T21:59:02.248Z,79.07
2022-08-25T22:01:28.838Z,78.54
2022-08-25T22:03:55.493Z,78.37
2022-08-25T22:06:23.080Z,78.87
2022-08-25T22:08:49.921Z,78.72
2022-08-25T22:11:16.333Z,79.54
2022-08-25T22:13:44.080Z,79.98
2022-08-25T22:16:11.889Z,80.12
2022-08-25T22:18:38.722Z,79.97
2022-08-25T22:21:09.620Z,79.65
2022-08-25T22:23:44.149Z,80.79
2022-08-25T22:26:11.348Z,79.75
2022-08-25T22:28:37.658Z,79.89
2022-08-25T22:31:04.202Z,79.69
2022-08-25T22:33:31.243Z,79.17
2022-08-25T22:35:59.758Z,79.13
2022-08-25T22:38:26.470Z,79.86
2022-08-25T22:40:52.779Z,80.69
2022-08-25T22:43:19.104Z,80.17
2022-08-25T22:45:45.486Z,80.78
2022-08-25T22:48:11.837Z,80.63
2022-08-25T22:50:38.132Z,80.50
2022-08-25T22:53:04.500Z,80.25
2022-08-25T22:55:30.893Z,80.00
2022-08-25T22:57:57.231Z,80.05
2022-08-25T23:00:23.532Z,80.45
2022-08-25T23:02:53.192Z,80.88
2022-08-25T23:05:19.627Z,81.50
2022-08-25T23:07:45.933Z,81.79
2022-08-25T23:10:12.737Z,81.85
2022-08-25T23:12:39.479Z,83.06
2022-08-25T23:15:10.105Z,82.41
2022-08-25T23:17:37.294Z,81.38
2022-08-25T23:20:23.638Z,81.35
2022-08-25T23:22:50.065Z,81.72
2022-08-25T23:25:19.845Z,81.68
2022-08-25T23:27:46.428Z,81.28
2022-08-25T23:30:13.002Z,81.60
2022-08-25T23:32:39.312Z,81.57
2022-08-25T23:35:05.922Z,81.52
2022-08-25T23:37:32.219Z,81.91
2022-08-25T23:39:58.723Z,82.33
2022-08-25T23:42:25.296Z,82.71
2022-08-25T23:44:51.604Z,83.22
2022-08-25T23:47:18.055Z,83.31
2022-08-25T23:49:44.355Z,82.97
2022-08-25T23:52:10.672Z,83.37
2022-08-25T23:54:36.977Z,83.51
2022-08-25T23:57:03.283Z,83.97
2022-08-25T23:59:33.155Z,84.43
